Time;durP1;ratioP1;P1;durP2;ratioP2;P2;SDS_P1;SDS_P2;PMS_P1;PMS_P2;Temp;Humidity;BMP_temperature;BMP_pressure;BME280_temperature;BME280_humidity;BME280_pressure;Samples;Min_cycle;Max_cycle;Signal;HPM_P1;HPM_P2
2023/09/30 00:06:16;;;;;;;13.10;6.90;;;;;;;10.09;100.00;102495.38;4954089;29;20070;-76
2023/09/30 00:08:43;;;;;;;14.60;7.32;;;;;;;9.45;100.00;102390.88;4953944;28;20036;-75
2023/09/30 00:11:11;;;;;;;14.70;7.05;;;;;;;10.11;100.00;102496.16;4953733;28;20020;-76
2023/09/30 00:14:24;;;;;;;14.30;7.57;;;;;;;9.23;100.00;102348.63;4959001;23;20078;-75
2023/09/30 00:16:55;;;;;;;13.23;6.78;;;;;;;9.41;100.00;102397.00;4973709;28;20034;-76
2023/09/30 00:27:13;;;;;;;;;;;;;;;;;;;;;
2023/09/30 00:36:58;;;;;;;14.40;9.15;;;;;;;10.11;100.00;102509.06;4916167;29;20111;-80
2023/09/30 00:39:45;;;;;;;13.50;8.82;;;;;;;10.11;100.00;102516.81;4915991;29;20166;-83
2023/09/30 00:42:31;;;;;;;18.55;9.90;;;;;;;9.08;100.00;102354.31;4916135;29;20044;-80
2023/09/30 00:44:59;;;;;;;14.05;9.52;;;;;;;9.00;100.00;102349.41;4915785;29;20039;-84
2023/09/30 00:48:03;;;;;;;14.32;8.95;;;;;;;9.55;100.00;102448.16;4915801;29;20047;-82
2023/09/30 00:51:28;;;;;;;13.75;9.35;;;;;;;8.89;100.00;102344.59;4915895;29;20083;-85
2023/09/30 00:57:20;;;;;;;15.77;9.40;;;;;;;8.85;100.00;102330.13;4915686;29;20039;-77
2023/09/30 00:59:52;;;;;;;17.90;10.05;;;;;;;9.63;100.00;102461.63;4916978;28;20448;-75
2023/09/30 01:02:20;;;;;;;;;;;;;;;9.90;100.00;102516.63;4915970;29;20032;-75
2023/09/30 01:05:10;;;;;;;14.38;8.50;;;;;;;9.86;100.00;102525.38;4915259;29;19966;-77
2023/09/30 01:07:47;;;;;;;13.70;8.68;;;;;;;9.07;100.00;102417.06;4928545;29;20147;-76
2023/09/30 01:14:29;;;;;;;14.45;9.30;;;;;;;9.75;100.00;102533.47;4890912;29;20051;-77
2023/09/30 01:17:13;;;;;;;16.92;10.18;;;;;;;8.67;100.00;102359.03;4896263;29;20112;-77
2023/09/30 01:25:55;;;;;;;14.70;10.00;;;;;;;8.43;100.00;102365.75;4896458;29;20040;-75
2023/09/30 01:28:33;;;;;;;14.50;10.18;;;;;;;9.22;100.00;102490.47;4896224;29;20044;-75
2023/09/30 01:31:14;;;;;;;16.48;10.50;;;;;;;8.53;100.00;102381.75;4879533;29;20430;-76
2023/09/30 01:40:26;;;;;;;19.27;11.20;;;;;;;8.65;100.00;102390.84;4875051;29;20100;-75
2023/09/30 01:43:22;;;;;;;16.23;10.93;;;;;;;8.71;100.00;102390.69;4859206;29;20052;-76
2023/09/30 01:46:06;;;;;;;20.08;12.27;;;;;;;9.50;100.00;102501.59;4874720;29;20607;-75
2023/09/30 01:48:46;;;;;;;21.58;13.05;;;;;;;8.99;100.00;102388.09;4859042;29;20360;-78
2023/09/30 01:54:36;;;;;;;21.23;14.50;;;;;;;9.06;100.00;102359.53;4952274;29;20065;-76
2023/09/30 01:57:38;;;;;;;21.05;15.23;;;;;;;10.06;100.00;102545.38;4952105;29;20035;-76
2023/09/30 02:00:04;;;;;;;23.58;16.10;;;;;;;9.81;100.00;102498.88;4952078;29;20039;-77
2023/09/30 02:02:30;;;;;;;19.73;14.82;;;;;;;10.03;100.00;102528.25;4952154;28;20023;-75
2023/09/30 02:04:57;;;;;;;23.00;15.90;;;;;;;9.88;100.00;102505.53;4951706;29;20081;-76
2023/09/30 02:07:22;;;;;;;21.75;15.27;;;;;;;10.07;100.00;102539.31;4951976;28;20587;-74
2023/09/30 02:09:48;;;;;;;22.52;16.23;;;;;;;9.90;100.00;102501.16;4934849;28;20029;-75
2023/09/30 02:12:14;;;;;;;23.45;16.50;;;;;;;10.15;100.00;102541.63;4951912;28;20029;-76
2023/09/30 02:14:39;;;;;;;23.05;17.30;;;;;;;10.17;100.00;102543.25;4951825;29;20397;-75
2023/09/30 02:17:11;;;;;;;25.25;17.10;;;;;;;10.18;100.00;102547.53;4951902;28;20115;-76
2023/09/30 02:19:48;;;;;;;22.95;17.00;;;;;;;10.20;100.00;102557.78;4951574;28;20027;-77
2023/09/30 02:22:13;;;;;;;23.67;17.63;;;;;;;10.24;100.00;102562.00;4952135;28;20031;-75
2023/09/30 02:25:07;;;;;;;29.00;17.73;;;;;;;10.23;100.00;102550.84;4951916;28;20032;-75
2023/09/30 02:27:32;;;;;;;22.27;16.85;;;;;;;10.24;100.00;102543.94;4951956;28;20055;-76
2023/09/30 02:29:57;;;;;;;26.58;17.38;;;;;;;10.18;100.00;102542.38;4951641;28;20035;-76
2023/09/30 02:32:24;;;;;;;22.45;16.90;;;;;;;10.19;100.00;102545.78;4951504;29;20035;-75
2023/09/30 02:34:50;;;;;;;24.52;15.98;;;;;;;10.17;100.00;102540.69;4951656;28;20500;-77
2023/09/30 02:37:17;;;;;;;26.33;16.95;;;;;;;10.05;100.00;102529.03;4951633;28;20376;-75
2023/09/30 02:39:43;;;;;;;22.65;15.95;;;;;;;10.10;100.00;102549.53;4951924;28;20032;-78
2023/09/30 02:42:08;;;;;;;23.20;16.42;;;;;;;9.67;100.00;102483.84;5039020;23;20428;-76
2023/09/30 02:44:34;;;;;;;25.77;16.27;;;;;;;9.11;100.00;102385.13;4951545;29;20043;-76
2023/09/30 02:46:59;;;;;;;24.45;16.67;;;;;;;9.98;100.00;102532.72;4934174;28;20031;-76
2023/09/30 02:49:34;;;;;;;26.05;16.25;;;;;;;10.05;100.00;102546.25;4951440;29;20473;-75
2023/09/30 02:52:17;;;;;;;26.73;16.60;;;;;;;10.10;100.00;102543.50;4951692;28;20034;-76
2023/09/30 02:54:46;;;;;;;22.83;16.52;;;;;;;9.14;100.00;102374.72;4951566;28;20027;-77
2023/09/30 02:57:31;;;;;;;24.13;16.52;;;;;;;9.13;100.00;102362.72;4951326;29;20070;-76
2023/09/30 03:03:19;;;;;;;25.48;17.00;;;;;;;9.65;100.00;102425.47;4951528;29;20538;-81
2023/09/30 03:05:49;;;;;;;24.92;17.20;;;;;;;9.18;100.00;102351.38;4951112;29;20109;-79
2023/09/30 03:08:15;;;;;;;24.70;16.45;;;;;;;9.92;100.00;102483.88;4951373;28;20030;-77
2023/09/30 03:10:43;;;;;;;24.88;16.33;;;;;;;10.27;100.00;102538.66;4951510;28;20027;-75
2023/09/30 03:13:12;;;;;;;25.00;15.93;;;;;;;10.30;100.00;102544.56;4951273;29;20432;-76
2023/09/30 03:15:38;;;;;;;22.42;15.80;;;;;;;10.28;100.00;102538.59;4951001;28;20031;-76
2023/09/30 03:18:04;;;;;;;23.23;16.52;;;;;;;10.07;100.00;102516.06;4951159;28;20027;-75
2023/09/30 03:20:30;;;;;;;30.73;17.70;;;;;;;10.13;100.00;102521.03;4950833;28;20019;-76
2023/09/30 03:23:14;;;;;;;23.95;17.30;;;;;;;10.30;100.00;102547.13;4952456;28;20114;-76
2023/09/30 03:25:47;;;;;;;22.92;16.27;;;;;;;9.65;100.00;102428.06;4954347;28;20054;-76
2023/09/30 03:28:33;;;;;;;21.42;16.05;;;;;;;10.30;100.00;102520.47;4954456;28;20023;-77
2023/09/30 03:31:01;;;;;;;19.90;15.50;;;;;;;9.90;100.00;102444.38;4954136;29;20051;-76
2023/09/30 03:33:26;;;;;;;23.55;16.17;;;;;;;10.25;100.00;102512.06;4954260;29;20051;-77
2023/09/30 03:35:52;;;;;;;23.83;15.45;;;;;;;9.82;100.00;102453.28;4954189;29;20063;-76
2023/09/30 03:38:48;;;;;;;24.50;15.70;;;;;;;10.20;100.00;102526.81;4954281;28;20053;-76
2023/09/30 03:41:16;;;;;;;20.70;15.65;;;;;;;9.33;100.00;102401.56;4954163;28;20149;-75
2023/09/30 03:44:00;;;;;;;23.95;14.90;;;;;;;10.12;100.00;102536.56;4954009;29;20035;-76
2023/09/30 03:46:26;;;;;;;21.10;14.88;;;;;;;9.63;100.00;102463.34;4954025;28;20455;-76
2023/09/30 03:48:52;;;;;;;21.98;14.45;;;;;;;10.00;100.00;102532.66;4954062;29;20102;-78
2023/09/30 03:51:18;;;;;;;20.58;14.50;;;;;;;9.76;100.00;102501.63;4953857;28;20027;-76
2023/09/30 03:53:44;;;;;;;25.05;15.63;;;;;;;9.39;100.00;102449.53;4954031;29;20023;-76
2023/09/30 03:56:18;;;;;;;22.05;14.65;;;;;;;9.89;100.00;102533.00;4953846;28;20046;-75
2023/09/30 03:58:44;;;;;;;20.80;14.27;;;;;;;9.87;100.00;102528.81;4954036;28;20085;-77
2023/09/30 04:01:13;;;;;;;23.02;14.75;;;;;;;9.78;100.00;102511.88;4933815;28;20046;-76
2023/09/30 04:03:43;;;;;;;23.00;14.10;;;;;;;9.36;100.00;102452.22;4953663;29;20031;-76
2023/09/30 04:06:17;;;;;;;21.33;15.27;;;;;;;9.70;100.00;102517.28;4953548;28;20542;-75
2023/09/30 04:08:43;;;;;;;21.73;15.55;;;;;;;9.73;100.00;102522.38;4936144;28;20039;-77
2023/09/30 04:11:10;;;;;;;22.63;15.43;;;;;;;9.63;100.00;102502.88;4953713;29;20027;-78
2023/09/30 04:13:36;;;;;;;24.65;15.52;;;;;;;9.74;100.00;102531.78;4953736;28;20106;-77
2023/09/30 04:16:02;;;;;;;21.42;15.40;;;;;;;9.74;100.00;102530.94;4953862;28;20074;-76
2023/09/30 04:18:38;;;;;;;23.83;16.20;;;;;;;9.67;100.00;102522.56;4953752;28;20488;-76
2023/09/30 04:21:04;;;;;;;24.90;16.48;;;;;;;9.38;100.00;102466.75;4953504;29;20106;-76
2023/09/30 04:23:36;;;;;;;26.25;16.95;;;;;;;9.29;100.00;102448.97;4953468;29;20098;-76
2023/09/30 04:26:02;;;;;;;28.42;16.35;;;;;;;9.59;100.00;102506.47;4953588;28;20035;-76
2023/09/30 04:28:28;;;;;;;25.58;16.35;;;;;;;9.72;100.00;102525.81;4953657;28;20049;-76
2023/09/30 04:31:03;;;;;;;23.15;15.50;;;;;;;9.15;100.00;102444.28;4953525;28;20077;-77
2023/09/30 04:33:51;;;;;;;24.45;16.10;;;;;;;9.65;100.00;102534.66;4952841;29;20032;-76
2023/09/30 04:36:20;;;;;;;24.05;15.98;;;;;;;8.91;100.00;102420.09;4953312;29;20101;-77
2023/09/30 04:38:45;;;;;;;23.58;15.52;;;;;;;9.15;100.00;102452.00;4953380;28;20504;-75
2023/09/30 04:41:19;;;;;;;26.30;15.63;;;;;;;9.56;100.00;102534.94;4953062;29;20109;-76
2023/09/30 04:43:44;;;;;;;23.73;15.68;;;;;;;9.51;100.00;102526.50;4953224;29;20038;-77
2023/09/30 04:46:12;;;;;;;24.45;16.38;;;;;;;9.52;100.00;102553.13;4936145;28;20027;-76
2023/09/30 04:48:40;;;;;;;25.35;15.88;;;;;;;8.92;100.00;102459.56;4953668;28;20109;-76
2023/09/30 04:51:18;;;;;;;23.08;15.70;;;;;;;9.49;100.00;102556.66;4953469;29;20027;-76
2023/09/30 04:53:44;;;;;;;27.20;16.95;;;;;;;9.49;100.00;102552.34;4953139;28;20089;-76
2023/09/30 04:56:20;;;;;;;27.70;17.20;;;;;;;8.36;100.00;102363.38;4935207;29;20035;-76
2023/09/30 04:59:37;;;;;;;29.40;17.80;;;;;;;8.33;100.00;102364.28;4953085;29;20023;-76
2023/09/30 05:02:15;;;;;;;27.80;17.05;;;;;;;8.87;100.00;102469.19;4974638;28;20062;-76
2023/09/30 05:05:01;;;;;;;25.65;17.40;;;;;;;8.34;100.00;102376.28;4972999;28;20073;-76
2023/09/30 05:07:38;;;;;;;28.80;18.70;;;;;;;8.50;100.00;102410.19;4956225;28;20444;-76
2023/09/30 05:13:49;;;;;;;24.40;16.85;;;;;;;9.34;100.00;102562.25;4972841;28;20037;-76
2023/09/30 05:16:29;;;;;;;27.27;17.23;;;;;;;8.22;100.00;102377.47;4972891;28;20038;-78
2023/09/30 05:19:49;;;;;;;28.95;19.00;;;;;;;9.39;100.00;102570.72;4972693;28;20171;-76
2023/09/30 05:29:29;;;;;;;33.25;19.08;;;;;;;9.37;100.00;102568.19;4972873;28;20050;-80
2023/09/30 05:53:13;;;;;;;35.33;20.33;;;;;;;9.68;100.00;102585.31;4927576;28;20117;-78
2023/09/30 05:56:00;;;;;;;34.58;20.60;;;;;;;9.36;100.00;102520.09;4932950;29;20039;-76
2023/09/30 06:28:47;;;;;;;35.55;20.85;;;;;;;10.24;100.00;102577.50;4932974;29;20397;-76
2023/09/30 06:31:16;;;;;;;39.80;20.52;;;;;;;10.28;100.00;102579.06;4914389;28;20024;-74
2023/09/30 06:34:11;;;;;;;36.17;20.58;;;;;;;10.34;100.00;102576.31;4933317;28;20035;-76
2023/09/30 06:42:48;;;;;;;32.20;20.23;;;;;;;9.98;100.00;102478.50;5759108;23;20056;-74
2023/09/30 06:46:11;;;;;;;41.08;21.23;;;;;;;10.71;100.00;102577.56;4932202;29;20085;-73
2023/09/30 06:48:40;;;;;;;36.28;21.17;;;;;;;10.79;100.00;102575.56;4937385;28;20146;-74
2023/09/30 06:51:34;;;;;;;33.90;20.58;;;;;;;10.95;100.00;102602.56;4951944;29;20374;-76
2023/09/30 06:54:00;;;;;;;34.53;21.00;;;;;;;11.06;100.00;102599.59;4952199;29;20066;-75
2023/09/30 07:03:33;;;;;;;32.63;19.92;;;;;;;11.52;100.00;102636.66;4956030;28;20130;-84
2023/09/30 07:33:24;;;;;;;24.40;13.02;;;;;;;12.58;100.00;102539.06;4934158;29;20089;-83
2023/09/30 07:36:39;;;;;;;23.13;13.75;;;;;;;13.39;100.00;102691.09;4935476;29;20024;-84
2023/09/30 07:47:37;;;;;;;26.35;14.20;;;;;;;13.68;100.00;102699.31;4912140;29;20548;-80
2023/09/30 07:51:13;;;;;;;18.27;12.88;;;;;;;14.04;100.00;102691.53;4992648;28;20129;-84
2023/09/30 07:57:33;;;;;;;22.33;12.70;;;;;;;13.52;100.00;102535.63;4994279;28;20558;-83
2023/09/30 08:00:36;;;;;;;20.00;11.32;;;;;;;14.57;100.00;102681.16;4981012;28;20154;-84
2023/09/30 08:07:19;;;;;;;18.40;11.35;;;;;;;14.78;100.00;102680.97;4994762;28;20106;-86
2023/09/30 08:34:08;;;;;;;16.55;9.77;;;;;;;15.26;100.00;102667.16;4935168;29;20508;-83
2023/09/30 08:46:49;;;;;;;18.48;11.00;;;;;;;15.49;100.00;102660.72;4935879;29;19922;-84
2023/09/30 09:05:42;;;;;;;13.30;6.95;;;;;;;15.82;100.00;102659.78;4936158;29;20066;-83
2023/09/30 09:08:13;;;;;;;17.15;7.60;;;;;;;14.96;100.00;102512.69;4935034;29;20081;-84
2023/09/30 09:21:17;;;;;;;13.25;7.40;;;;;;;15.41;100.00;102605.59;5372360;23;20810;-87
2023/09/30 11:30:03;;;;;;;15.82;7.35;;;;;;;18.34;99.60;102666.09;4958313;29;20051;-83
2023/09/30 11:45:04;;;;;;;11.02;4.22;;;;;;;19.00;90.83;102651.19;4954291;28;20066;-79
2023/09/30 12:42:09;;;;;;;7.97;3.00;;;;;;;19.15;86.64;102601.16;5626763;22;20062;-78
2023/09/30 12:52:15;;;;;;;8.30;3.95;;;;;;;18.57;80.95;102463.09;5011670;28;20037;-79
2023/09/30 12:58:06;;;;;;;;;;;;;;;19.56;85.22;102602.63;4992912;28;20044;-82
2023/09/30 13:29:36;;;;;;;7.13;3.25;;;;;;;19.25;78.93;102608.38;5247143;23;20126;-78
2023/09/30 13:35:49;;;;;;;9.20;3.20;;;;;;;19.05;81.75;102600.16;4953829;28;20442;-78
2023/09/30 13:39:07;;;;;;;9.70;3.22;;;;;;;18.98;84.29;102592.88;4952512;28;20366;-77
2023/09/30 13:45:16;;;;;;;8.55;3.40;;;;;;;18.34;86.23;102510.00;4952205;29;20035;-79
2023/09/30 14:02:17;;;;;;;6.50;3.10;;;;;;;18.59;87.11;102573.72;4840638;29;20102;-81
2023/09/30 14:07:55;;;;;;;11.05;3.72;;;;;;;17.51;85.80;102401.56;5183994;22;20122;-83
2023/09/30 14:47:20;;;;;;;6.63;2.88;;;;;;;18.40;83.52;102548.00;6042508;22;20023;-79
2023/09/30 15:29:39;;;;;;;10.15;3.22;;;;;;;18.16;86.71;102513.88;4915309;29;20036;-83
2023/09/30 15:38:53;;;;;;;8.95;3.60;;;;;;;17.71;83.24;102504.75;5350580;22;20055;-73
2023/09/30 15:41:51;;;;;;;8.15;3.42;;;;;;;17.70;85.12;102516.16;4954194;29;20031;-74
2023/09/30 15:44:17;;;;;;;9.43;3.42;;;;;;;16.85;87.61;102392.03;4972998;28;20062;-74
2023/09/30 15:47:06;;;;;;;9.15;3.50;;;;;;;17.57;85.95;102528.31;4974301;28;20035;-74
2023/09/30 15:49:41;;;;;;;7.57;3.45;;;;;;;17.17;85.83;102471.66;4916939;29;20047;-74
2023/09/30 16:03:17;;;;;;;9.07;4.10;;;;;;;17.35;90.95;102503.59;4860924;29;20072;-75
2023/09/30 16:09:12;;;;;;;9.00;3.55;;;;;;;17.04;91.06;102451.69;4860725;29;20293;-75
2023/09/30 16:11:38;;;;;;;8.75;3.53;;;;;;;17.25;88.91;102494.69;4860716;29;20049;-78
2023/09/30 16:14:24;;;;;;;7.88;3.60;;;;;;;17.16;91.18;102495.28;4860453;29;20042;-77
2023/09/30 16:16:49;;;;;;;10.40;3.78;;;;;;;16.98;92.17;102473.78;4805596;29;20186;-76
2023/09/30 16:19:14;;;;;;;8.95;3.75;;;;;;;16.92;93.91;102474.19;4796812;29;20044;-76
2023/09/30 16:21:40;;;;;;;10.10;3.55;;;;;;;17.01;96.09;102504.06;4766586;29;20126;-74
2023/09/30 16:24:05;;;;;;;8.38;3.70;;;;;;;16.91;94.90;102499.47;4766709;30;20406;-78
2023/09/30 16:40:06;;;;;;;;;;;;;;;;;;;;;
2023/09/30 16:46:41;;;;;;;9.30;3.92;;;;;;;16.34;96.87;102514.28;4984958;28;20034;-77
2023/09/30 16:57:04;;;;;;;10.73;4.53;;;;;;;15.09;98.02;102355.81;4939925;29;20035;-77
2023/09/30 16:59:32;;;;;;;10.25;4.43;;;;;;;15.92;100.00;102522.88;4914535;29;20044;-74
2023/09/30 17:02:00;;;;;;;9.20;4.00;;;;;;;15.77;100.00;102504.63;4933593;29;20051;-76
2023/09/30 17:04:26;;;;;;;10.82;5.22;;;;;;;15.75;100.00;102503.88;4953763;29;20509;-77
2023/09/30 17:06:51;;;;;;;10.15;4.05;;;;;;;15.85;100.00;102516.38;4953722;29;20054;-76
2023/09/30 17:09:17;;;;;;;9.57;4.28;;;;;;;15.69;100.00;102504.22;4953790;28;20039;-77
2023/09/30 17:11:43;;;;;;;11.73;4.53;;;;;;;15.64;100.00;102511.47;4953743;29;20038;-75
2023/09/30 17:14:08;;;;;;;9.75;4.75;;;;;;;15.75;100.00;102524.72;4953520;29;20039;-77
2023/09/30 17:16:34;;;;;;;13.20;5.35;;;;;;;15.68;100.00;102512.97;4953134;29;20118;-75
2023/09/30 17:19:02;;;;;;;11.50;5.15;;;;;;;15.66;100.00;102519.19;4953604;29;20031;-74
2023/09/30 17:21:27;;;;;;;10.00;5.85;;;;;;;15.57;100.00;102519.69;4953348;29;20154;-76
2023/09/30 17:23:52;;;;;;;8.90;4.57;;;;;;;15.54;100.00;102525.91;4871796;29;20125;-75
2023/09/30 17:26:18;;;;;;;9.20;5.07;;;;;;;15.46;100.00;102526.34;4899742;29;20071;-75
2023/09/30 17:28:44;;;;;;;10.68;4.85;;;;;;;15.43;100.00;102528.25;4931493;29;20589;-76
2023/09/30 17:31:10;;;;;;;9.68;4.97;;;;;;;15.38;100.00;102530.28;4930855;28;20054;-75
2023/09/30 17:33:36;;;;;;;11.30;5.40;;;;;;;15.27;100.00;102523.09;4964321;28;20042;-74
2023/09/30 17:36:06;;;;;;;11.13;5.45;;;;;;;15.13;100.00;102515.19;4972087;28;20026;-76
2023/09/30 17:38:32;;;;;;;12.48;6.43;;;;;;;15.07;100.00;102524.19;4971861;28;20511;-75
2023/09/30 17:41:04;;;;;;;13.98;8.45;;;;;;;15.02;100.00;102527.97;4970357;28;20109;-74
2023/09/30 17:43:30;;;;;;;14.80;8.48;;;;;;;14.96;100.00;102528.31;4971762;28;20026;-75
2023/09/30 17:45:55;;;;;;;11.73;7.95;;;;;;;14.94;100.00;102525.75;4971381;28;20041;-75
2023/09/30 17:48:22;;;;;;;13.70;8.20;;;;;;;14.87;100.00;102514.88;4971543;28;20038;-77
2023/09/30 17:50:48;;;;;;;12.85;8.63;;;;;;;14.95;100.00;102530.06;4971744;28;20035;-80
2023/09/30 17:53:13;;;;;;;12.95;7.32;;;;;;;14.90;100.00;102506.91;4971578;28;20031;-78
2023/09/30 17:55:38;;;;;;;10.90;7.05;;;;;;;14.87;100.00;102514.88;4971628;28;20573;-79
2023/09/30 17:58:04;;;;;;;13.32;7.97;;;;;;;14.78;100.00;102515.38;4971892;28;20106;-78
2023/09/30 18:00:37;;;;;;;11.45;7.85;;;;;;;14.71;100.00;102528.78;4954122;28;20476;-77
2023/09/30 18:03:06;;;;;;;11.25;7.20;;;;;;;14.65;100.00;102527.34;4971738;28;20426;-79
2023/09/30 18:05:31;;;;;;;12.05;8.00;;;;;;;14.60;100.00;102529.34;4971275;28;20034;-79
2023/09/30 18:07:57;;;;;;;11.32;7.47;;;;;;;14.54;100.00;102527.91;4971380;28;20038;-76
2023/09/30 18:10:24;;;;;;;13.73;8.57;;;;;;;14.52;100.00;102527.13;4972294;28;20420;-76
2023/09/30 18:12:55;;;;;;;11.93;8.23;;;;;;;14.50;100.00;102522.94;4973456;28;20023;-78
2023/09/30 18:15:21;;;;;;;;;;;;;;;14.57;100.00;102526.91;4976157;28;20035;-75
2023/09/30 18:17:46;;;;;;;13.27;7.93;;;;;;;14.48;100.00;102510.03;4971902;28;19914;-77
2023/09/30 18:20:11;;;;;;;13.38;8.80;;;;;;;14.52;100.00;102505.50;4971888;28;20102;-77
2023/09/30 18:22:37;;;;;;;11.63;7.88;;;;;;;14.59;100.00;102523.31;4971524;28;20030;-80
2023/09/30 18:25:09;;;;;;;14.32;9.02;;;;;;;14.61;100.00;102511.06;4971367;28;20387;-77
2023/09/30 18:27:35;;;;;;;13.73;9.35;;;;;;;14.63;100.00;102501.41;4970931;28;20087;-81
2023/09/30 18:30:09;;;;;;;16.33;10.65;;;;;;;14.60;100.00;102495.53;4971208;28;20031;-81
2023/09/30 18:32:35;;;;;;;13.65;10.40;;;;;;;14.54;100.00;102477.66;4971196;28;20434;-75
2023/09/30 18:35:01;;;;;;;12.52;9.40;;;;;;;14.56;100.00;102483.66;4971231;28;20026;-77
2023/09/30 18:37:27;;;;;;;13.25;10.02;;;;;;;14.64;100.00;102507.44;4971149;28;20037;-82
2023/09/30 18:39:53;;;;;;;13.90;9.98;;;;;;;14.48;100.00;102476.25;4970819;28;20051;-78
2023/09/30 18:42:19;;;;;;;13.55;9.48;;;;;;;14.41;100.00;102472.25;4970866;28;20046;-76
2023/09/30 18:44:44;;;;;;;14.07;9.75;;;;;;;14.23;100.00;102452.44;4970580;28;20550;-75
2023/09/30 18:47:10;;;;;;;15.07;9.95;;;;;;;14.25;100.00;102468.78;4970899;28;20026;-77
2023/09/30 18:49:35;;;;;;;13.23;10.02;;;;;;;14.27;100.00;102482.53;4971082;28;20027;-80
2023/09/30 18:52:01;;;;;;;14.15;9.85;;;;;;;14.36;100.00;102497.66;4970945;28;20049;-78
2023/09/30 18:54:30;;;;;;;14.07;9.80;;;;;;;14.33;100.00;102506.44;4974407;28;20027;-78
2023/09/30 18:56:55;;;;;;;14.85;9.23;;;;;;;14.16;100.00;102480.50;4957016;28;20396;-77
2023/09/30 18:59:22;;;;;;;15.07;10.20;;;;;;;14.22;100.00;102498.34;4974102;28;20035;-78
2023/09/30 19:01:51;;;;;;;14.55;9.90;;;;;;;14.27;100.00;102505.94;4974396;28;20019;-80
2023/09/30 19:04:17;;;;;;;13.63;10.55;;;;;;;14.24;100.00;102500.88;4957129;28;20113;-80
2023/09/30 19:06:45;;;;;;;13.43;10.50;;;;;;;14.24;100.00;102487.88;4974180;28;20023;-79
2023/09/30 19:09:11;;;;;;;14.15;9.98;;;;;;;14.15;100.00;102467.56;4974213;28;20027;-75
2023/09/30 19:11:37;;;;;;;13.68;10.32;;;;;;;14.37;100.00;102494.13;4956827;28;20031;-81
2023/09/30 19:14:04;;;;;;;14.95;10.20;;;;;;;14.15;100.00;102459.78;4973976;28;20034;-75
2023/09/30 19:16:29;;;;;;;14.45;10.40;;;;;;;14.33;100.00;102484.81;4974186;28;20545;-81
2023/09/30 19:18:55;;;;;;;13.90;9.93;;;;;;;14.25;100.00;102460.97;4974114;28;20026;-82
2023/09/30 19:21:20;;;;;;;16.35;10.50;;;;;;;14.46;100.00;102483.28;4974048;28;20077;-80
2023/09/30 19:23:51;;;;;;;13.75;9.80;;;;;;;14.25;100.00;102451.41;4974071;28;20030;-81
2023/09/30 19:26:16;;;;;;;12.37;9.50;;;;;;;14.45;100.00;102486.78;4973597;28;20027;-79
2023/09/30 19:28:42;;;;;;;14.02;9.88;;;;;;;14.21;100.00;102449.06;4973758;28;20297;-81
2023/09/30 19:31:15;;;;;;;13.52;10.30;;;;;;;14.18;100.00;102442.28;4974041;28;20472;-80
2023/09/30 19:33:42;;;;;;;15.38;10.40;;;;;;;14.20;100.00;102453.44;4973834;28;20028;-80
2023/09/30 19:36:09;;;;;;;15.30;10.98;;;;;;;14.25;100.00;102456.63;4973853;28;20023;-78
2023/09/30 19:38:34;;;;;;;15.45;10.90;;;;;;;14.29;100.00;102485.91;4956438;28;20049;-80
2023/09/30 19:41:00;;;;;;;12.93;10.88;;;;;;;14.17;100.00;102487.38;4973772;28;20031;-76
2023/09/30 19:43:25;;;;;;;18.00;11.10;;;;;;;14.07;100.00;102486.16;4973499;28;20111;-76
2023/09/30 19:46:01;;;;;;;15.20;10.98;;;;;;;13.92;100.00;102495.56;4973552;28;20019;-74
2023/09/30 19:48:26;;;;;;;14.45;10.77;;;;;;;13.78;100.00;102500.63;4955218;28;20538;-76
2023/09/30 19:50:52;;;;;;;16.90;10.68;;;;;;;13.67;100.00;102505.50;4973705;28;20066;-79
2023/09/30 19:53:17;;;;;;;16.45;11.77;;;;;;;13.55;100.00;102509.53;4973235;28;20353;-79
2023/09/30 19:55:43;;;;;;;15.70;11.60;;;;;;;13.35;100.00;102492.31;4973449;28;20062;-78
2023/09/30 19:58:08;;;;;;;15.68;11.27;;;;;;;13.40;100.00;102515.47;4973309;28;20045;-80
2023/09/30 20:00:38;;;;;;;15.45;11.40;;;;;;;13.30;100.00;102509.88;4973455;28;20435;-76
2023/09/30 20:03:04;;;;;;;16.35;10.80;;;;;;;13.19;100.00;102513.00;4973410;28;20026;-73
2023/09/30 20:05:30;;;;;;;13.77;11.40;;;;;;;13.04;100.00;102492.06;4972490;28;20434;-79
2023/09/30 20:07:55;;;;;;;13.57;11.07;;;;;;;12.98;100.00;102489.75;4973202;28;20027;-81
2023/09/30 20:10:22;;;;;;;15.15;11.30;;;;;;;12.89;100.00;102483.25;4973245;28;20141;-78
2023/09/30 20:12:47;;;;;;;15.65;11.68;;;;;;;12.86;100.00;102484.22;4973148;28;20038;-79
2023/09/30 20:15:12;;;;;;;17.90;11.35;;;;;;;12.76;100.00;102482.13;4973018;28;20031;-81
2023/09/30 20:17:38;;;;;;;14.75;11.25;;;;;;;12.60;100.00;102469.88;4973061;28;20030;-83
2023/09/30 20:20:05;;;;;;;14.75;11.35;;;;;;;12.59;100.00;102488.94;4973275;28;20050;-82
2023/09/30 20:22:31;;;;;;;16.77;12.10;;;;;;;12.52;100.00;102478.91;4973305;28;20384;-83
2023/09/30 20:24:59;;;;;;;15.07;11.68;;;;;;;12.53;100.00;102491.78;4956876;28;20039;-82
2023/09/30 20:27:24;;;;;;;15.25;11.35;;;;;;;12.48;100.00;102503.25;4972908;28;20392;-82
2023/09/30 20:30:05;;;;;;;17.50;12.02;;;;;;;12.46;100.00;102505.06;4972844;28;20023;-82
2023/09/30 20:32:30;;;;;;;14.80;11.85;;;;;;;12.39;100.00;102488.97;4973147;28;20361;-81
2023/09/30 20:34:55;;;;;;;16.30;12.90;;;;;;;12.26;100.00;102487.81;4972539;28;20110;-82
2023/09/30 20:37:21;;;;;;;17.25;11.90;;;;;;;12.22;100.00;102494.88;4972833;28;20023;-83
2023/09/30 20:39:47;;;;;;;17.27;12.45;;;;;;;12.24;100.00;102495.66;4971271;28;20373;-80
2023/09/30 20:42:12;;;;;;;16.27;11.98;;;;;;;12.17;100.00;102496.81;4972629;28;20034;-83
2023/09/30 20:44:37;;;;;;;16.38;12.60;;;;;;;12.13;100.00;102497.88;4972634;28;20037;-82
2023/09/30 20:47:03;;;;;;;15.38;11.82;;;;;;;12.11;100.00;102507.47;4972683;28;20031;-78
2023/09/30 20:49:29;;;;;;;17.02;12.82;;;;;;;12.09;100.00;102511.84;4972628;28;20050;-78
2023/09/30 20:51:55;;;;;;;15.68;12.38;;;;;;;12.00;100.00;102507.09;4972557;28;20061;-80
2023/09/30 20:54:20;;;;;;;16.05;11.80;;;;;;;12.01;100.00;102506.16;4972402;28;20027;-77
2023/09/30 20:56:45;;;;;;;14.55;11.40;;;;;;;12.11;100.00;102509.22;4972572;28;20035;-75
2023/09/30 20:59:23;;;;;;;15.60;12.30;;;;;;;12.07;100.00;102517.09;4955260;28;20034;-82
2023/09/30 21:01:49;;;;;;;16.10;12.20;;;;;;;11.78;100.00;102473.44;4955101;28;20530;-78
2023/09/30 21:04:21;;;;;;;16.70;11.82;;;;;;;11.83;100.00;102481.06;4954871;28;20031;-77
2023/09/30 21:06:46;;;;;;;14.65;11.68;;;;;;;11.97;100.00;102496.81;4972239;28;20019;-80
2023/09/30 21:09:12;;;;;;;15.90;11.40;;;;;;;11.97;100.00;102494.25;4972348;28;20041;-81
2023/09/30 21:11:41;;;;;;;13.38;11.10;;;;;;;11.95;100.00;102485.72;4972102;28;20029;-82
2023/09/30 21:14:07;;;;;;;14.07;11.27;;;;;;;11.59;100.00;102442.28;4972501;28;20497;-82
2023/09/30 21:16:36;;;;;;;15.70;11.50;;;;;;;11.82;100.00;102477.63;4972107;28;20177;-82
2023/09/30 21:19:03;;;;;;;15.05;12.10;;;;;;;12.07;100.00;102516.25;4972298;28;20031;-83
2023/09/30 21:21:28;;;;;;;15.30;11.77;;;;;;;12.13;100.00;102505.63;4954801;28;20400;-81
2023/09/30 21:23:54;;;;;;;15.95;11.90;;;;;;;12.07;100.00;102474.81;4972050;28;20026;-82
2023/09/30 21:26:19;;;;;;;17.88;12.48;;;;;;;12.09;100.00;102454.88;4972348;28;20023;-83
2023/09/30 21:28:45;;;;;;;14.23;12.07;;;;;;;12.43;100.00;102497.44;4955604;28;20054;-82
2023/09/30 21:31:18;;;;;;;17.25;12.98;;;;;;;12.36;100.00;102468.38;4979299;28;20495;-82
2023/09/30 21:33:50;;;;;;;13.88;11.82;;;;;;;12.15;100.00;102431.31;4989999;28;20030;-81
2023/09/30 21:36:30;;;;;;;15.07;12.10;;;;;;;12.19;100.00;102440.66;4985188;28;20018;-82
2023/09/30 21:38:56;;;;;;;18.05;13.75;;;;;;;12.44;100.00;102479.25;4976551;28;20096;-81
2023/09/30 21:41:21;;;;;;;15.63;12.93;;;;;;;12.46;100.00;102485.19;4955474;28;20035;-82